CW7218 Berga ES current weather conditions

sailwx.info

Wind from 180 at 3 knots gusting 8

Air temperature 9.4° C
Dewpoint 1.4° C

Last reported at 2020-Jan-18 14:00 UTC.
Time now 2020-Jan-18 14:24 UTC

Location: N 42°06' E 001°51'.
View on Google Maps.

See reports from other nearby stations

  
Tides and Currents Weather Stations Pressure Air Temp Water Temp Dewpoint Dewpoint Depression Visibility Wind Speed Wind Dir Waves Ship Positions
date/time (UTC)wind fromknots sea level pressurealtimeterstation pressurevisibilityair tempwater tempwave heightnotes
2020-Jan-18 14:00 180 3 gusting 8 9.4
2020-Jan-18 13:50 180 6 gusting 10 8.9
2020-Jan-18 13:40 203 7 gusting 13 8.9
2020-Jan-18 13:30 180 6 gusting 11 8.9
2020-Jan-18 13:20 180 6 gusting 13 8.3
2020-Jan-18 13:10 203 6 gusting 14 8.9
2020-Jan-18 13:00 225 6 gusting 12 8.9
2020-Jan-18 12:50 225 7 gusting 13 8.9
2020-Jan-18 12:40 203 6 gusting 10 8.9
2020-Jan-18 12:30 180 5 gusting 8 9.4
2020-Jan-18 12:20 158 2 gusting 5 9.4
2020-Jan-18 12:10 090 4 gusting 9 8.9
2020-Jan-18 12:00 090 5 gusting 12 8.9
2020-Jan-18 11:50 090 6 gusting 12 8.3
2020-Jan-18 11:40 090 6 gusting 12 7.8
2020-Jan-18 11:30 090 6 gusting 12 7.2
2020-Jan-18 11:20 090 5 gusting 8 6.7
2020-Jan-18 11:10 090 6 gusting 9 6.1
2020-Jan-18 11:00 090 4 gusting 7 5.6
2020-Jan-18 10:50 113 3 gusting 6 5.0
2020-Jan-18 10:40 113 2 gusting 4 4.4
2020-Jan-18 10:30 113 0 gusting 3 4.4
2020-Jan-18 10:20 4.4
2020-Jan-18 10:10 135 0 gusting 2 3.9
2020-Jan-18 10:00 158 1 gusting 5 4.4
2020-Jan-18 09:50 158 1 gusting 6 5.0
2020-Jan-18 09:40 113 0 gusting 2 5.6
2020-Jan-18 09:30 113 0 gusting 2 5.6
2020-Jan-18 09:20 068 0 gusting 2 5.0
2020-Jan-18 09:10 045 2 gusting 3 4.4
2020-Jan-18 09:00 045 2 gusting 6 3.9
2020-Jan-18 08:50 068 6 gusting 10 3.9
2020-Jan-18 08:40 068 8 gusting 12 3.3
2020-Jan-18 08:30 045 6 gusting 9 2.8
2020-Jan-18 08:20 068 5 gusting 8 2.8
2020-Jan-18 08:10 045 4 gusting 8 3.3
2020-Jan-18 08:00 068 4 gusting 6 3.3
2020-Jan-18 07:50 090 4 gusting 6 3.3
2020-Jan-18 07:40 090 3 gusting 6 3.9
2020-Jan-18 07:30 045 2 gusting 4 3.3
2020-Jan-18 07:20 068 3 gusting 5 3.3
2020-Jan-18 07:10 090 4 gusting 6 3.3
2020-Jan-18 07:00 090 3 gusting 6 3.3
2020-Jan-18 06:50 090 4 gusting 6 3.3
2020-Jan-18 06:40 045 5 gusting 7 3.3
2020-Jan-18 06:30 045 3 gusting 5 3.9
2020-Jan-18 06:20 068 2 gusting 4 3.9
2020-Jan-18 06:10 068 1 gusting 2 4.4
2020-Jan-18 06:00 068 0 gusting 2 3.9
2020-Jan-18 05:50 068 3 gusting 6 3.3
2020-Jan-18 05:40 068 6 gusting 9 3.3
2020-Jan-18 05:30 045 3 gusting 6 2.8
2020-Jan-18 05:20 023 4 gusting 6 2.8
2020-Jan-18 05:10 068 4 gusting 6 2.2
2020-Jan-18 05:00 090 6 gusting 8 2.2
2020-Jan-18 04:50 068 6 gusting 12 1.7
2020-Jan-18 04:40 045 8 gusting 13 2.2
2020-Jan-18 04:30 045 3 gusting 6 2.8
2020-Jan-18 04:20 068 5 gusting 8 2.2
2020-Jan-18 04:10 045 7 gusting 13 2.8
2020-Jan-18 04:00 045 6 gusting 10 2.2
2020-Jan-18 03:50 068 5 gusting 8 2.2
2020-Jan-18 03:40 068 6 gusting 9 1.7
2020-Jan-18 03:30 045 6 gusting 8 2.2
2020-Jan-18 03:20 045 4 gusting 7 2.2
2020-Jan-18 03:10 045 4 gusting 8 2.2
2020-Jan-18 03:00 068 5 gusting 7 2.2
2020-Jan-18 02:50 045 6 gusting 8 2.2
2020-Jan-18 02:40 045 6 gusting 7 2.2
2020-Jan-18 02:30 045 6 gusting 8 2.2
2020-Jan-18 02:20 068 6 gusting 9 2.8
2020-Jan-18 02:10 068 8 gusting 12 2.8
2020-Jan-18 02:00 023 6 gusting 10 3.9
2020-Jan-18 01:50 023 6 gusting 10 3.9
2020-Jan-18 01:40 068 6 gusting 9 3.9
2020-Jan-18 01:30 023 4 gusting 6 3.9
2020-Jan-18 01:20 3.9
2020-Jan-18 01:10 3.9
2020-Jan-18 01:00 045 3 gusting 6 3.3
2020-Jan-18 00:50 045 3 gusting 6 3.3
2020-Jan-18 00:40 023 6 gusting 10 3.9
2020-Jan-18 00:30 045 6 gusting 9 3.9
2020-Jan-18 00:20 045 5 gusting 9 3.3
2020-Jan-18 00:10 045 4 gusting 8 3.9
2020-Jan-18 00:00 068 3 gusting 6 4.4
2020-Jan-17 23:50 068 1 gusting 4 5.0
2020-Jan-17 23:40 5.0
2020-Jan-17 23:30 5.6
2020-Jan-17 23:20 225 0 gusting 3 5.6
2020-Jan-17 23:10 248 1 gusting 4 6.1
2020-Jan-17 23:00 293 3 gusting 6 5.6
2020-Jan-17 22:50 293 4 gusting 6 5.0
2020-Jan-17 22:40 270 4 gusting 6 5.0
2020-Jan-17 22:30 315 2 gusting 4 5.0
2020-Jan-17 22:20 068 4 gusting 7 5.0
2020-Jan-17 22:10 090 2 gusting 6 5.0
2020-Jan-17 22:00 045 5 gusting 8 5.0
2020-Jan-17 21:50 023 5 gusting 9 5.6
2020-Jan-17 21:40 045 6 gusting 7 6.1
2020-Jan-17 21:30 023 4 gusting 7 6.1
2020-Jan-17 21:20 023 5 gusting 8 6.1
2020-Jan-17 21:10 023 6 gusting 10 6.1
2020-Jan-17 21:00 045 6 gusting 11 6.1
2020-Jan-17 20:50 068 5 gusting 9 6.1
2020-Jan-17 20:40 6.7
2020-Jan-17 20:30 023 0 gusting 2 7.2
2020-Jan-17 20:20 7.2
2020-Jan-17 20:10 338 1 gusting 4 7.2
2020-Jan-17 20:00 315 3 gusting 5 6.7
2020-Jan-17 19:50 293 2 gusting 4 6.7
2020-Jan-17 19:40 315 3 gusting 5 7.2
2020-Jan-17 19:30 7.2
2020-Jan-17 19:20 338 1 gusting 4 7.8
2020-Jan-17 19:10 225 1 gusting 4 7.8
2020-Jan-17 19:00 135 2 gusting 6 8.3
2020-Jan-17 18:50 8.9
2020-Jan-17 18:40 8.9
2020-Jan-17 18:30 8.9
2020-Jan-17 18:20 338 3 gusting 5 8.9
2020-Jan-17 18:10 113 1 gusting 4 8.9
2020-Jan-17 18:00 315 1 gusting 4 8.9
2020-Jan-17 17:50 180 1 gusting 4 8.9
2020-Jan-17 17:40 203 3 gusting 6 9.4
2020-Jan-17 17:30 180 2 gusting 6 9.4
2020-Jan-17 17:20 135 2 gusting 6 10.0
2020-Jan-17 17:10 338 4 gusting 13 10.0
2020-Jan-17 17:00 10.0
2020-Jan-17 16:50 315 2 gusting 6 10.0
2020-Jan-17 16:40 045 4 gusting 7 10.0
2020-Jan-17 16:30 068 6 gusting 13 10.0
2020-Jan-17 16:20 068 6 gusting 12 10.6
2020-Jan-17 16:10 270 5 gusting 14 11.1
2020-Jan-17 16:00 248 11 gusting 19 11.1
2020-Jan-17 15:50 248 13 gusting 25 11.1
2020-Jan-17 15:40 248 13 gusting 20 10.6
2020-Jan-17 15:30 270 14 gusting 26 10.6
2020-Jan-17 15:20 270 15 gusting 29 10.6
2020-Jan-17 15:10 270 14 gusting 24 10.6
2020-Jan-17 15:00 293 15 gusting 24 10.6
2020-Jan-17 14:50 293 16 gusting 26 10.0
2020-Jan-17 14:40 270 13 gusting 22 10.6
2020-Jan-17 14:30 270 17 gusting 29 10.6
2020-Jan-17 14:20 270 21 gusting 33 12.2
2020-Jan-17 14:10 248 19 gusting 33 12.8
2020-Jan-17 14:00 248 15 gusting 26 12.8
2020-Jan-17 13:50 248 11 gusting 21 13.3
2020-Jan-17 13:40 248 11 gusting 21 13.3
2020-Jan-17 13:30 248 11 gusting 19 13.3
2020-Jan-17 13:20 225 11 gusting 20 12.8
2020-Jan-17 13:10 225 11 gusting 17 12.2
2020-Jan-17 13:00 225 10 gusting 18 12.8
2020-Jan-17 12:50 225 7 gusting 15 12.8
2020-Jan-17 12:40 248 3 gusting 10 13.3
2020-Jan-17 12:30 180 2 gusting 6 12.8
2020-Jan-17 12:20 203 1 gusting 5 11.7
2020-Jan-17 12:10 135 0 gusting 2 11.1
2020-Jan-17 12:00 135 0 gusting 3 10.6
2020-Jan-17 11:50 158 1 gusting 3 10.6
2020-Jan-17 11:40 158 1 gusting 3 10.0
2020-Jan-17 11:30 135 0 gusting 2 10.0
2020-Jan-17 11:20 135 1 gusting 4 9.4
2020-Jan-17 11:10 158 0 gusting 4 9.4
2020-Jan-17 11:00 135 0 gusting 2 8.9
2020-Jan-17 10:50 135 1 gusting 3 8.3
2020-Jan-17 10:40 113 1 gusting 3 8.3
2020-Jan-17 10:30 113 0 gusting 4 7.8
2020-Jan-17 10:20 135 0 gusting 2 7.8
2020-Jan-17 10:10 113 0 gusting 3 7.2
2020-Jan-17 10:00 113 0 gusting 4 7.2
2020-Jan-17 09:50 158 0 gusting 2 7.2
2020-Jan-17 09:40 158 1 gusting 3 6.7
2020-Jan-17 09:30 158 0 gusting 2 6.7
2020-Jan-17 09:20 113 0 gusting 2 6.7
2020-Jan-17 09:10 113 0 gusting 2 6.7
2020-Jan-17 09:00 113 0 gusting 2 6.7
2020-Jan-17 08:50 113 0 gusting 2 6.7
2020-Jan-17 08:40 090 0 gusting 5 6.7
2020-Jan-17 08:30 090 0 gusting 6 6.1
2020-Jan-17 08:20 090 1 gusting 6 5.6
2020-Jan-17 08:10 023 0 gusting 3 5.6
2020-Jan-17 08:00 293 1 gusting 4 5.0
2020-Jan-17 07:50 270 1 gusting 3 5.0
2020-Jan-17 07:40 5.0
2020-Jan-17 07:30 293 0 gusting 1 5.0
2020-Jan-17 07:20 225 0 gusting 3 4.4
2020-Jan-17 07:10 248 2 gusting 5 4.4
2020-Jan-17 07:00 090 2 gusting 5 4.4
2020-Jan-17 06:50 113 2 gusting 6 5.0
2020-Jan-17 06:40 045 1 gusting 4 5.0
2020-Jan-17 06:30 045 0 gusting 1 5.0
2020-Jan-17 06:20 045 2 gusting 4 5.0
2020-Jan-17 06:10 113 0 gusting 2 5.0
2020-Jan-17 06:00 5.0
2020-Jan-17 05:50 5.0
2020-Jan-17 05:40 113 0 gusting 2 5.0
2020-Jan-17 05:30 113 0 gusting 2 4.4
2020-Jan-17 05:20 113 0 gusting 2 5.0
2020-Jan-17 05:10 270 2 gusting 5 5.0
2020-Jan-17 05:00 068 0 gusting 1 5.0
2020-Jan-17 04:50 045 0 gusting 2 5.0
2020-Jan-17 04:40 225 0 gusting 2 5.0
2020-Jan-17 04:30 225 0 gusting 4 5.0
2020-Jan-17 04:20 068 0 gusting 2 5.0
2020-Jan-17 04:10 068 1 gusting 5 5.0
2020-Jan-17 04:00 068 0 gusting 1 5.0
2020-Jan-17 03:50 068 0 gusting 2 5.0
2020-Jan-17 03:40 068 1 gusting 3 5.0
2020-Jan-17 03:30 068 1 gusting 4 5.0
2020-Jan-17 03:20 068 0 gusting 1 5.0
2020-Jan-17 03:10 068 1 gusting 3 5.0
2020-Jan-17 03:00 068 1 gusting 3 5.0
2020-Jan-17 02:50 068 1 gusting 3 4.4
2020-Jan-17 02:40 068 0 gusting 3 4.4
2020-Jan-17 02:30 068 1 gusting 4 4.4
2020-Jan-17 02:20 045 2 gusting 4 5.0
2020-Jan-17 02:10 090 0 gusting 2 5.0
2020-Jan-17 02:00 090 0 gusting 2 5.0
2020-Jan-17 01:50 5.0
2020-Jan-17 01:40 5.0
2020-Jan-17 01:30 090 0 gusting 1 5.0
2020-Jan-17 01:20 090 1 gusting 4 4.4
2020-Jan-17 01:10 090 1 gusting 5 4.4
2020-Jan-17 01:00 090 1 gusting 5 4.4
2020-Jan-17 00:50 045 3 gusting 6 4.4
2020-Jan-17 00:40 068 4 gusting 6 4.4
2020-Jan-17 00:30 045 5 gusting 7 4.4
2020-Jan-17 00:20 068 4 gusting 6 4.4
2020-Jan-17 00:10 068 1 gusting 3 5.0
2020-Jan-17 00:00 045 2 gusting 5 5.0
2020-Jan-16 23:50 045 3 gusting 6 5.0
2020-Jan-16 23:40 068 1 gusting 3 5.0
2020-Jan-16 23:30 068 2 gusting 3 5.0
2020-Jan-16 23:20 068 3 gusting 4 5.0
2020-Jan-16 23:10 090 3 gusting 5 5.0
2020-Jan-16 23:00 045 1 gusting 2 5.0
2020-Jan-16 22:50 090 2 gusting 4 5.0
2020-Jan-16 22:40 090 1 gusting 2 5.0
2020-Jan-16 22:30 090 3 gusting 6 5.0
2020-Jan-16 22:20 045 3 gusting 6 5.0
2020-Jan-16 22:10 045 3 gusting 6 5.0
2020-Jan-16 22:00 068 3 gusting 6 5.0
2020-Jan-16 21:50 023 0 gusting 2 5.0
2020-Jan-16 21:40 023 3 gusting 6 5.0
2020-Jan-16 21:30 045 5 gusting 7 5.6
2020-Jan-16 21:20 068 5 gusting 7 5.6
2020-Jan-16 21:10 068 6 gusting 8 5.6
2020-Jan-16 21:00 045 5 gusting 7 5.6
2020-Jan-16 20:50 045 4 gusting 6 5.6
2020-Jan-16 20:40 045 4 gusting 6 6.1
2020-Jan-16 20:30 023 4 gusting 6 6.1
2020-Jan-16 20:20 045 4 gusting 6 6.1
2020-Jan-16 20:10 045 3 gusting 5 6.1
2020-Jan-16 20:00 045 4 gusting 6 6.7
2020-Jan-16 19:50 068 4 gusting 6 6.7
2020-Jan-16 19:40 023 4 gusting 6 6.7
2020-Jan-16 19:30 045 3 gusting 6 6.7
2020-Jan-16 19:20 068 3 gusting 6 7.2
2020-Jan-16 19:10 023 2 gusting 6 7.2
2020-Jan-16 19:00 045 3 gusting 6 7.8
2020-Jan-16 18:50 045 4 gusting 6 7.8
2020-Jan-16 18:40 023 3 gusting 6 7.8
2020-Jan-16 18:30 045 2 gusting 4 8.3
2020-Jan-16 18:20 8.3
2020-Jan-16 18:10 045 1 gusting 4 8.9
2020-Jan-16 18:00 045 3 gusting 6 8.9
2020-Jan-16 17:50 090 4 gusting 8 8.9
2020-Jan-16 17:40 068 6 gusting 7 8.9
2020-Jan-16 17:30 068 6 gusting 8 8.9
2020-Jan-16 17:20 045 5 gusting 7 9.4
2020-Jan-16 17:10 045 5 gusting 7 9.4
2020-Jan-16 17:00 045 2 gusting 5 10.0
2020-Jan-16 16:50 10.6
2020-Jan-16 16:40 270 1 gusting 2 11.1
2020-Jan-16 16:30 225 2 gusting 7 11.1
2020-Jan-16 16:20 203 5 gusting 8 11.7
2020-Jan-16 16:10 203 2 gusting 7 12.8
2020-Jan-16 16:00 113 0 gusting 2 12.2
2020-Jan-16 15:50 113 0 gusting 3 12.2
2020-Jan-16 15:40 068 1 gusting 4 12.2
2020-Jan-16 15:30 068 0 gusting 2 11.7
2020-Jan-16 15:20 068 0 gusting 1 11.7
2020-Jan-16 15:10 068 0 gusting 2 11.7
2020-Jan-16 15:00 158 1 gusting 2 11.1
2020-Jan-16 14:50 158 0 gusting 1 11.7
2020-Jan-16 14:40 158 0 gusting 2 11.7
2020-Jan-16 14:30 225 1 gusting 4 11.7
2020-Jan-16 14:20 180 2 gusting 5 11.1
2020-Jan-16 14:10 158 1 gusting 4 11.1
2020-Jan-16 14:00 135 1 gusting 4 10.6